Time;durP1;ratioP1;P1;durP2;ratioP2;P2;SDS_P1;SDS_P2;PMS_P1;PMS_P2;Temp;Humidity;BMP_temperature;BMP_pressure;BME280_temperature;BME280_humidity;BME280_pressure;Samples;Min_cycle;Max_cycle;Signal;HPM_P1;HPM_P2
2023/07/18 05:35:05;;;;;;;5.40;4.47;;;;;;;;;;5126626;27;1387950;-62
2023/07/18 05:37:33;;;;;;;5.20;4.22;;;;;;;;;;5155150;27;20201;-62
2023/07/18 05:40:00;;;;;;;4.72;3.40;;;;;;;;;;5155894;27;20284;-62
2023/07/18 05:42:28;;;;;;;4.35;3.53;;;;;;;;;;5155345;27;20506;-62
2023/07/18 05:44:55;;;;;;;5.28;3.28;;;;;;;;;;5155635;27;20642;-62
2023/07/18 05:47:22;;;;;;;4.95;3.13;;;;;;;;;;5155438;27;20202;-69
2023/07/18 05:49:50;;;;;;;3.42;2.90;;;;;;;;;;5156218;27;20648;-62
2023/07/18 05:52:19;;;;;;;4.10;2.70;;;;;;;;;;5154513;27;20197;-62
2023/07/18 05:54:46;;;;;;;4.25;2.60;;;;;;;;;;5155140;27;20218;-62
2023/07/18 05:57:13;;;;;;;4.22;3.05;;;;;;;;;;5155378;27;20241;-63
2023/07/18 05:59:41;;;;;;;3.42;2.40;;;;;;;;;;5154914;27;20292;-63
2023/07/18 06:02:08;;;;;;;3.13;2.45;;;;;;;;;;5154632;27;20640;-62
2023/07/18 06:04:38;;;;;;;3.92;2.50;;;;;;;;;;5155662;27;20210;-62
2023/07/18 06:07:06;;;;;;;2.97;2.45;;;;;;;;;;5155097;27;20206;-62
2023/07/18 06:09:35;;;;;;;2.78;2.33;;;;;;;;;;5155412;27;20263;-63
2023/07/18 06:12:02;;;;;;;3.92;2.40;;;;;;;;;;5155052;27;20201;-62
2023/07/18 06:14:30;;;;;;;3.92;2.25;;;;;;;;;;5155184;27;20322;-62
2023/07/18 06:16:58;;;;;;;2.72;2.40;;;;;;;;;;5156015;27;20294;-63
2023/07/18 06:19:26;;;;;;;2.92;2.38;;;;;;;;;;5155104;27;20240;-62
2023/07/18 06:21:53;;;;;;;3.00;2.28;;;;;;;;;;5154970;27;20202;-62
2023/07/18 06:24:20;;;;;;;3.30;2.15;;;;;;;;;;5153582;27;20292;-62
2023/07/18 06:26:49;;;;;;;3.55;2.15;;;;;;;;;;5154481;27;20216;-62
2023/07/18 06:29:17;;;;;;;2.28;1.95;;;;;;;;;;5154382;27;20206;-62
2023/07/18 06:31:45;;;;;;;2.25;2.05;;;;;;;;;;5154329;27;20214;-62
2023/07/18 06:34:12;;;;;;;2.42;2.00;;;;;;;;;;5153840;27;20226;-62
2023/07/18 06:36:39;;;;;;;2.15;1.95;;;;;;;;;;5154032;27;20209;-62
2023/07/18 06:39:07;;;;;;;3.45;2.03;;;;;;;;;;5154395;27;20296;-63
2023/07/18 06:41:35;;;;;;;2.08;1.88;;;;;;;;;;5153992;27;20208;-62
2023/07/18 06:44:07;;;;;;;3.53;2.00;;;;;;;;;;5153627;27;20202;-62
2023/07/18 06:46:34;;;;;;;2.17;1.98;;;;;;;;;;5138389;27;20205;-62
2023/07/18 06:49:02;;;;;;;2.42;2.00;;;;;;;;;;5140076;27;20209;-64
2023/07/18 06:51:29;;;;;;;2.97;2.10;;;;;;;;;;5139425;27;20237;-62
2023/07/18 06:53:56;;;;;;;3.40;2.20;;;;;;;;;;5140042;27;20228;-62
2023/07/18 06:56:24;;;;;;;2.40;2.00;;;;;;;;;;5139931;27;20301;-62
2023/07/18 06:58:52;;;;;;;2.30;2.08;;;;;;;;;;5139936;27;20213;-62
2023/07/18 07:01:21;;;;;;;2.20;2.00;;;;;;;;;;5138936;27;20202;-62
2023/07/18 07:03:49;;;;;;;2.38;1.92;;;;;;;;;;5139821;27;20201;-62
2023/07/18 07:06:18;;;;;;;2.95;1.92;;;;;;;;;;5140163;27;20233;-62
2023/07/18 07:08:45;;;;;;;2.35;2.03;;;;;;;;;;5136883;27;20205;-63
2023/07/18 07:11:12;;;;;;;2.03;1.70;;;;;;;;;;5139094;27;20607;-62
2023/07/18 07:13:40;;;;;;;3.10;1.80;;;;;;;;;;5139662;27;20222;-62
2023/07/18 07:16:07;;;;;;;2.05;1.73;;;;;;;;;;5140282;27;20285;-62
2023/07/18 07:18:36;;;;;;;1.98;1.77;;;;;;;;;;5139838;27;20202;-62
2023/07/18 07:21:04;;;;;;;1.70;1.60;;;;;;;;;;5138932;27;20194;-62
2023/07/18 07:23:32;;;;;;;2.00;1.90;;;;;;;;;;5139075;27;20215;-62
2023/07/18 07:26:00;;;;;;;1.80;1.70;;;;;;;;;;5138409;27;20263;-62
2023/07/18 07:28:27;;;;;;;2.83;2.10;;;;;;;;;;5139260;27;20202;-62
2023/07/18 07:30:54;;;;;;;3.05;1.88;;;;;;;;;;5139186;27;20202;-62
2023/07/18 07:33:22;;;;;;;2.63;1.63;;;;;;;;;;5138944;27;20332;-62
2023/07/18 07:35:50;;;;;;;1.73;1.52;;;;;;;;;;5137934;27;20294;-62
2023/07/18 07:38:18;;;;;;;1.70;1.60;;;;;;;;;;5139159;27;20209;-62
2023/07/18 07:40:46;;;;;;;1.67;1.58;;;;;;;;;;5140250;27;20216;-62
2023/07/18 07:43:13;;;;;;;1.70;1.60;;;;;;;;;;5138822;27;20315;-62
2023/07/18 07:45:40;;;;;;;1.60;1.50;;;;;;;;;;5139463;27;20636;-62
2023/07/18 07:48:08;;;;;;;2.35;1.70;;;;;;;;;;5138610;27;20210;-62
2023/07/18 07:50:36;;;;;;;2.55;1.95;;;;;;;;;;5138644;27;20270;-62
2023/07/18 07:53:05;;;;;;;1.60;1.40;;;;;;;;;;5137630;27;20481;-62
2023/07/18 07:55:32;;;;;;;3.03;1.60;;;;;;;;;;5137035;27;20233;-64
2023/07/18 07:58:00;;;;;;;2.83;1.50;;;;;;;;;;5136810;27;20272;-62
2023/07/18 08:00:27;;;;;;;2.08;1.60;;;;;;;;;;5138554;27;20270;-63
2023/07/18 08:02:55;;;;;;;2.33;1.67;;;;;;;;;;5138158;27;20524;-62
2023/07/18 08:05:22;;;;;;;1.65;1.33;;;;;;;;;;5138020;27;20198;-63
2023/07/18 08:07:50;;;;;;;1.88;1.60;;;;;;;;;;5138167;27;20597;-63
2023/07/18 08:10:19;;;;;;;1.85;1.70;;;;;;;;;;5137952;27;20203;-63
2023/07/18 08:12:46;;;;;;;2.22;1.70;;;;;;;;;;5138319;27;20585;-62
2023/07/18 08:15:14;;;;;;;1.70;1.50;;;;;;;;;;5138509;27;20515;-63
2023/07/18 08:17:42;;;;;;;1.50;1.27;;;;;;;;;;5137832;27;20250;-62
2023/07/18 08:20:12;;;;;;;1.42;1.33;;;;;;;;;;5138216;27;20208;-63
2023/07/18 08:22:39;;;;;;;2.13;1.50;;;;;;;;;;5138624;27;20565;-62
2023/07/18 08:25:07;;;;;;;1.52;1.42;;;;;;;;;;5137895;27;20285;-62
2023/07/18 08:27:37;;;;;;;1.92;1.50;;;;;;;;;;5137823;27;20202;-63
2023/07/18 08:30:05;;;;;;;1.60;1.50;;;;;;;;;;5137459;27;20229;-63
2023/07/18 08:32:32;;;;;;;1.40;1.30;;;;;;;;;;5137714;27;20206;-62
2023/07/18 08:35:00;;;;;;;1.67;1.30;;;;;;;;;;5137014;27;20335;-63
2023/07/18 08:37:27;;;;;;;1.50;1.40;;;;;;;;;;5137332;27;20228;-63
2023/07/18 08:39:54;;;;;;;2.13;1.25;;;;;;;;;;5136925;27;20281;-63
2023/07/18 08:42:26;;;;;;;1.60;1.50;;;;;;;;;;5136866;27;20214;-63
2023/07/18 08:44:55;;;;;;;2.28;1.35;;;;;;;;;;5136830;27;20574;-63
2023/07/18 08:47:23;;;;;;;2.15;1.58;;;;;;;;;;5137035;27;20194;-63
2023/07/18 08:49:50;;;;;;;1.65;1.52;;;;;;;;;;5136280;27;20202;-63
2023/07/18 08:52:18;;;;;;;2.25;1.45;;;;;;;;;;5136592;27;20604;-63
2023/07/18 08:54:45;;;;;;;2.40;1.67;;;;;;;;;;5136427;27;20631;-62
2023/07/18 08:57:13;;;;;;;2.08;1.65;;;;;;;;;;5136453;27;20202;-62
2023/07/18 08:59:41;;;;;;;1.92;1.83;;;;;;;;;;5136909;27;20198;-62
2023/07/18 09:02:10;;;;;;;2.83;1.80;;;;;;;;;;5136789;27;20499;-63
2023/07/18 09:04:37;;;;;;;2.65;1.50;;;;;;;;;;5136531;27;20198;-62
2023/07/18 09:07:05;;;;;;;2.55;1.70;;;;;;;;;;5137447;27;20229;-62
2023/07/18 09:09:32;;;;;;;3.42;1.90;;;;;;;;;;5136887;27;20202;-62
2023/07/18 09:12:00;;;;;;;4.63;1.50;;;;;;;;;;5136181;27;20198;-62
2023/07/18 09:14:28;;;;;;;2.47;1.50;;;;;;;;;;5136893;27;20647;-62
2023/07/18 09:16:56;;;;;;;2.17;1.70;;;;;;;;;;5136885;27;20238;-62
2023/07/18 09:19:38;;;;;;;1.77;1.48;;;;;;;;;;5136529;27;20202;-62
2023/07/18 09:22:06;;;;;;;2.13;1.75;;;;;;;;;;5136358;27;20721;-62
2023/07/18 09:24:36;;;;;;;2.53;1.60;;;;;;;;;;5137170;27;20199;-63
2023/07/18 09:27:04;;;;;;;2.65;1.75;;;;;;;;;;5136415;27;20213;-63
2023/07/18 09:29:31;;;;;;;4.47;1.90;;;;;;;;;;5136428;27;20202;-62
2023/07/18 09:31:59;;;;;;;2.47;2.08;;;;;;;;;;5136236;28;20206;-62
2023/07/18 09:34:27;;;;;;;1.98;1.70;;;;;;;;;;5136081;28;20590;-62
2023/07/18 09:37:03;;;;;;;1.90;1.60;;;;;;;;;;5136245;28;20232;-62
2023/07/18 09:39:31;;;;;;;3.13;1.70;;;;;;;;;;5136269;28;20201;-63
2023/07/18 09:41:58;;;;;;;2.13;1.67;;;;;;;;;;5136646;28;20202;-62
2023/07/18 09:44:28;;;;;;;2.28;1.50;;;;;;;;;;5136572;28;20199;-62
2023/07/18 09:46:56;;;;;;;1.58;1.48;;;;;;;;;;5136511;28;20212;-63
2023/07/18 09:49:23;;;;;;;1.60;1.40;;;;;;;;;;5136472;28;20198;-63
2023/07/18 09:51:54;;;;;;;1.55;1.30;;;;;;;;;;5136530;28;20237;-63
2023/07/18 09:54:23;;;;;;;2.92;1.67;;;;;;;;;;5135394;28;20229;-62
2023/07/18 09:56:53;;;;;;;2.50;1.85;;;;;;;;;;5135960;28;20213;-62
2023/07/18 09:59:22;;;;;;;2.97;1.80;;;;;;;;;;5136113;28;20202;-62
2023/07/18 10:01:51;;;;;;;1.80;1.70;;;;;;;;;;5136461;28;20202;-62
2023/07/18 10:04:20;;;;;;;3.05;2.00;;;;;;;;;;5136177;28;20240;-63
2023/07/18 10:06:48;;;;;;;2.00;1.80;;;;;;;;;;5136634;28;20504;-63
2023/07/18 10:09:16;;;;;;;1.83;1.65;;;;;;;;;;5135573;28;20297;-62
2023/07/18 10:12:02;;;;;;;2.92;1.90;;;;;;;;;;5135464;28;20206;-62
2023/07/18 10:14:31;;;;;;;2.30;2.10;;;;;;;;;;5135280;28;20226;-63
2023/07/18 10:16:59;;;;;;;2.17;1.88;;;;;;;;;;5135912;28;20256;-63
2023/07/18 10:19:28;;;;;;;2.88;1.90;;;;;;;;;;5135711;27;20210;-63
2023/07/18 10:21:58;;;;;;;2.15;1.83;;;;;;;;;;5139284;27;20604;-62
2023/07/18 10:24:31;;;;;;;2.67;2.05;;;;;;;;;;5139326;27;20201;-62
2023/07/18 10:27:00;;;;;;;2.50;1.95;;;;;;;;;;5139452;27;20202;-62
2023/07/18 10:29:32;;;;;;;3.33;2.00;;;;;;;;;;5138807;27;20616;-62
2023/07/18 10:32:00;;;;;;;4.10;2.03;;;;;;;;;;5139638;27;20194;-62
2023/07/18 10:34:28;;;;;;;2.47;1.80;;;;;;;;;;5138832;27;20238;-62
2023/07/18 10:36:56;;;;;;;2.15;1.83;;;;;;;;;;5139471;27;20216;-62
2023/07/18 10:39:38;;;;;;;2.28;2.08;;;;;;;;;;5139508;27;20485;-62
2023/07/18 10:42:09;;;;;;;3.28;1.92;;;;;;;;;;5139645;27;20202;-62
2023/07/18 10:44:38;;;;;;;2.40;2.00;;;;;;;;;;5139629;27;20199;-62
2023/07/18 10:47:16;;;;;;;2.75;2.00;;;;;;;;;;5139112;27;20573;-63
2023/07/18 10:49:44;;;;;;;2.00;1.90;;;;;;;;;;5139683;27;20214;-62
2023/07/18 10:52:12;;;;;;;2.70;1.88;;;;;;;;;;5139653;27;20202;-62
2023/07/18 10:54:44;;;;;;;2.63;2.10;;;;;;;;;;5138886;27;20218;-62
2023/07/18 10:57:11;;;;;;;1.92;1.73;;;;;;;;;;5139461;27;20789;-62
2023/07/18 10:59:43;;;;;;;2.10;2.00;;;;;;;;;;5138549;27;20577;-63
2023/07/18 11:02:11;;;;;;;2.53;1.98;;;;;;;;;;5138486;27;20608;-64
2023/07/18 11:04:38;;;;;;;2.00;1.80;;;;;;;;;;5138494;27;20616;-62
2023/07/18 11:07:10;;;;;;;2.20;2.00;;;;;;;;;;5139146;27;20540;-62
2023/07/18 11:09:38;;;;;;;2.78;1.65;;;;;;;;;;5139590;27;20515;-62
2023/07/18 11:12:06;;;;;;;2.20;2.00;;;;;;;;;;5138631;27;20486;-62
2023/07/18 11:14:41;;;;;;;1.90;1.80;;;;;;;;;;5138385;27;20202;-62
2023/07/18 11:17:13;;;;;;;1.92;1.65;;;;;;;;;;5118447;27;20285;-64
2023/07/18 11:19:40;;;;;;;2.40;1.83;;;;;;;;;;5118813;28;20203;-62
2023/07/18 11:22:10;;;;;;;1.90;1.70;;;;;;;;;;5118317;28;20462;-62
2023/07/18 11:24:37;;;;;;;3.08;1.88;;;;;;;;;;5117780;28;20230;-62
2023/07/18 11:27:17;;;;;;;2.15;1.95;;;;;;;;;;5117301;28;20282;-62
2023/07/18 11:30:00;;;;;;;2.10;1.75;;;;;;;;;;5118003;28;20199;-62
2023/07/18 11:32:48;;;;;;;1.85;1.73;;;;;;;;;;5115196;28;20427;-63
2023/07/18 11:35:21;;;;;;;2.08;1.67;;;;;;;;;;5113066;28;20231;-63
2023/07/18 11:37:51;;;;;;;1.95;1.60;;;;;;;;;;5118379;28;20206;-62
2023/07/18 11:40:20;;;;;;;2.13;1.63;;;;;;;;;;5118289;28;20283;-63
2023/07/18 11:42:48;;;;;;;2.42;1.70;;;;;;;;;;5118489;28;20306;-62
2023/07/18 11:48:20;;;;;;;2.08;1.75;;;;;;;;;;5112874;28;20579;-62
2023/07/18 11:50:50;;;;;;;2.03;1.80;;;;;;;;;;5117006;28;20347;-62
2023/07/18 11:53:26;;;;;;;2.45;2.15;;;;;;;;;;5117473;28;20203;-62
2023/07/18 11:55:54;;;;;;;2.50;2.08;;;;;;;;;;5117814;28;20222;-62
2023/07/18 11:58:21;;;;;;;2.30;1.92;;;;;;;;;;5117713;28;20203;-62
2023/07/18 12:00:49;;;;;;;2.22;1.70;;;;;;;;;;5116951;28;20586;-63
2023/07/18 12:03:17;;;;;;;2.42;1.88;;;;;;;;;;5117655;28;20211;-62
2023/07/18 12:05:44;;;;;;;2.03;1.80;;;;;;;;;;5117956;28;20283;-62
2023/07/18 12:08:13;;;;;;;1.70;1.60;;;;;;;;;;5117302;28;20203;-62
2023/07/18 12:10:41;;;;;;;1.90;1.70;;;;;;;;;;5117283;28;20194;-62
2023/07/18 12:13:08;;;;;;;2.17;1.90;;;;;;;;;;5118198;28;20298;-62
2023/07/18 12:15:36;;;;;;;2.08;1.88;;;;;;;;;;5117390;28;20230;-62
2023/07/18 12:18:03;;;;;;;2.13;1.65;;;;;;;;;;5117654;28;20582;-62
2023/07/18 12:20:32;;;;;;;2.15;1.75;;;;;;;;;;5116941;28;20290;-63
2023/07/18 12:23:00;;;;;;;1.67;1.58;;;;;;;;;;5117375;28;20211;-62
2023/07/18 12:25:31;;;;;;;2.30;2.10;;;;;;;;;;5117168;28;20210;-62
2023/07/18 12:28:00;;;;;;;1.70;1.60;;;;;;;;;;5115915;28;20202;-62
2023/07/18 12:30:30;;;;;;;2.25;1.90;;;;;;;;;;5117258;28;20232;-62
2023/07/18 12:32:58;;;;;;;2.58;1.98;;;;;;;;;;5117002;28;20203;-62
2023/07/18 12:35:25;;;;;;;2.60;1.92;;;;;;;;;;5117375;28;20714;-62
2023/07/18 12:37:54;;;;;;;2.08;1.80;;;;;;;;;;5117228;28;20198;-62
2023/07/18 12:40:22;;;;;;;2.33;1.98;;;;;;;;;;5116327;28;20199;-62
2023/07/18 12:42:51;;;;;;;2.05;1.73;;;;;;;;;;5116270;28;20591;-62
2023/07/18 12:45:18;;;;;;;2.75;1.77;;;;;;;;;;5116460;28;20199;-62
2023/07/18 12:47:46;;;;;;;2.38;1.85;;;;;;;;;;5116074;28;20211;-62
2023/07/18 12:50:16;;;;;;;2.40;1.85;;;;;;;;;;5116277;28;20547;-62
2023/07/18 12:52:43;;;;;;;2.25;1.90;;;;;;;;;;5116171;28;20209;-62
2023/07/18 12:55:11;;;;;;;3.00;1.80;;;;;;;;;;5115197;28;20519;-63
2023/07/18 12:57:38;;;;;;;1.88;1.65;;;;;;;;;;5116490;28;20228;-62
2023/07/18 13:00:09;;;;;;;1.90;1.70;;;;;;;;;;5116329;28;20207;-62
2023/07/18 13:02:37;;;;;;;2.13;1.73;;;;;;;;;;5116056;28;20228;-62
2023/07/18 13:05:05;;;;;;;1.95;1.70;;;;;;;;;;5116899;28;20199;-62
2023/07/18 13:07:32;;;;;;;2.05;1.83;;;;;;;;;;5116124;28;20386;-62
2023/07/18 13:09:59;;;;;;;2.65;2.03;;;;;;;;;;5115718;28;20554;-62
2023/07/18 13:12:30;;;;;;;1.90;1.70;;;;;;;;;;5115063;28;20565;-62
2023/07/18 13:14:57;;;;;;;2.15;1.85;;;;;;;;;;5116231;28;20198;-63
2023/07/18 13:17:26;;;;;;;1.73;1.63;;;;;;;;;;5115760;28;20305;-63
2023/07/18 13:19:54;;;;;;;2.50;1.80;;;;;;;;;;5115546;28;20305;-62
2023/07/18 13:22:21;;;;;;;1.95;1.70;;;;;;;;;;5116157;28;20202;-62
2023/07/18 13:24:49;;;;;;;2.00;1.80;;;;;;;;;;5116134;28;20213;-63
2023/07/18 13:27:16;;;;;;;2.20;2.00;;;;;;;;;;5116204;28;20209;-63
2023/07/18 13:29:43;;;;;;;2.05;1.80;;;;;;;;;;5116278;28;20297;-62
2023/07/18 13:32:11;;;;;;;1.80;1.70;;;;;;;;;;5114873;28;20217;-62
2023/07/18 13:34:40;;;;;;;2.13;1.92;;;;;;;;;;5115375;28;20235;-62
2023/07/18 13:37:08;;;;;;;1.83;1.70;;;;;;;;;;5115684;28;20223;-62
2023/07/18 13:39:35;;;;;;;2.22;1.80;;;;;;;;;;5116886;28;20289;-62
2023/07/18 13:42:06;;;;;;;2.03;1.60;;;;;;;;;;5115223;28;20199;-62
2023/07/18 13:44:33;;;;;;;1.80;1.70;;;;;;;;;;5115750;28;20202;-63
2023/07/18 13:47:02;;;;;;;2.03;1.80;;;;;;;;;;5115531;28;20578;-63
2023/07/18 13:49:31;;;;;;;2.95;1.98;;;;;;;;;;5114860;28;20210;-62
2023/07/18 13:52:00;;;;;;;2.10;1.90;;;;;;;;;;5114409;28;20206;-62
2023/07/18 13:54:27;;;;;;;2.05;1.88;;;;;;;;;;5115076;28;20199;-63
2023/07/18 13:56:55;;;;;;;2.75;1.85;;;;;;;;;;5119965;28;20489;-62
2023/07/18 13:59:23;;;;;;;2.75;1.83;;;;;;;;;;5120243;28;20203;-62
2023/07/18 14:01:50;;;;;;;1.70;1.60;;;;;;;;;;5119857;28;20198;-62
2023/07/18 14:04:18;;;;;;;1.83;1.73;;;;;;;;;;5119728;28;20574;-62
2023/07/18 14:06:45;;;;;;;2.55;2.03;;;;;;;;;;5120089;28;20297;-62
2023/07/18 14:09:15;;;;;;;1.55;1.42;;;;;;;;;;5120000;28;20209;-62
2023/07/18 14:11:42;;;;;;;2.85;1.83;;;;;;;;;;5120158;28;20313;-63
2023/07/18 14:14:09;;;;;;;2.00;1.80;;;;;;;;;;5120033;28;20297;-63
2023/07/18 14:16:37;;;;;;;2.20;1.90;;;;;;;;;;5119009;28;20622;-63
2023/07/18 14:19:04;;;;;;;2.10;1.90;;;;;;;;;;5119336;28;20213;-63
2023/07/18 14:21:32;;;;;;;2.53;2.20;;;;;;;;;;5118251;28;20203;-62
2023/07/18 14:23:59;;;;;;;2.78;1.80;;;;;;;;;;5119283;28;20233;-62
2023/07/18 14:26:28;;;;;;;2.20;2.00;;;;;;;;;;5119433;28;20297;-63
2023/07/18 14:28:56;;;;;;;2.10;1.90;;;;;;;;;;5118853;28;20202;-63
2023/07/18 14:31:23;;;;;;;2.08;1.70;;;;;;;;;;5119888;28;20214;-63
2023/07/18 14:33:50;;;;;;;2.50;2.08;;;;;;;;;;5118371;28;20753;-63
2023/07/18 14:36:18;;;;;;;2.60;1.80;;;;;;;;;;5118509;28;20237;-62
2023/07/18 14:38:47;;;;;;;2.78;1.85;;;;;;;;;;5119165;28;20203;-62
2023/07/18 14:41:15;;;;;;;1.88;1.73;;;;;;;;;;5118776;28;20268;-63
2023/07/18 14:43:43;;;;;;;2.30;2.10;;;;;;;;;;5118236;28;20245;-62
2023/07/18 14:46:11;;;;;;;1.92;1.73;;;;;;;;;;5118428;28;20199;-63
2023/07/18 14:48:38;;;;;;;2.40;2.20;;;;;;;;;;5119451;28;20239;-63
2023/07/18 14:51:06;;;;;;;2.15;1.95;;;;;;;;;;5119379;28;20209;-62
2023/07/18 14:53:33;;;;;;;2.50;1.95;;;;;;;;;;5118531;28;20203;-62
2023/07/18 14:56:01;;;;;;;2.00;1.83;;;;;;;;;;5119687;28;20632;-62
2023/07/18 14:58:28;;;;;;;2.30;2.10;;;;;;;;;;5118766;28;20210;-63
2023/07/18 15:00:57;;;;;;;3.28;2.28;;;;;;;;;;5118773;28;20222;-62
2023/07/18 15:03:25;;;;;;;2.63;2.08;;;;;;;;;;5118447;28;20199;-62
2023/07/18 15:05:52;;;;;;;2.42;2.00;;;;;;;;;;5117995;28;20252;-61
2023/07/18 15:08:20;;;;;;;2.40;1.90;;;;;;;;;;5117922;28;20650;-62
2023/07/18 15:10:47;;;;;;;2.45;1.90;;;;;;;;;;5118598;28;20540;-62
2023/07/18 15:13:15;;;;;;;2.50;1.85;;;;;;;;;;5117228;28;20199;-62
2023/07/18 15:15:43;;;;;;;1.95;1.70;;;;;;;;;;5118638;28;20479;-62
2023/07/18 15:18:14;;;;;;;2.03;1.85;;;;;;;;;;5118637;28;20220;-62
2023/07/18 15:20:41;;;;;;;3.03;2.13;;;;;;;;;;5118217;28;20203;-62
2023/07/18 15:23:09;;;;;;;2.38;2.17;;;;;;;;;;5118285;28;20238;-62
2023/07/18 15:25:36;;;;;;;3.55;2.08;;;;;;;;;;5118359;28;20213;-62
2023/07/18 15:28:04;;;;;;;3.20;1.77;;;;;;;;;;5118071;28;20191;-62
2023/07/18 15:30:31;;;;;;;2.15;1.88;;;;;;;;;;5117834;28;20199;-62
2023/07/18 15:32:59;;;;;;;3.45;1.90;;;;;;;;;;5117070;28;20199;-62
2023/07/18 15:35:28;;;;;;;2.47;1.80;;;;;;;;;;5117667;28;20268;-62
2023/07/18 15:37:55;;;;;;;2.47;2.00;;;;;;;;;;5117981;28;20777;-62
2023/07/18 15:40:23;;;;;;;2.25;1.88;;;;;;;;;;5117600;28;20205;-62
2023/07/18 15:42:50;;;;;;;2.40;2.20;;;;;;;;;;5117366;28;20195;-62
2023/07/18 15:45:17;;;;;;;2.25;2.05;;;;;;;;;;5117519;28;20332;-62
2023/07/18 15:47:45;;;;;;;2.50;1.90;;;;;;;;;;5116876;28;20294;-62
2023/07/18 15:50:12;;;;;;;3.97;2.22;;;;;;;;;;5117566;28;20206;-62
2023/07/18 15:52:42;;;;;;;2.60;2.20;;;;;;;;;;5117019;28;20585;-62
2023/07/18 15:55:10;;;;;;;2.13;2.00;;;;;;;;;;5118119;28;20202;-63
2023/07/18 15:57:37;;;;;;;2.45;1.80;;;;;;;;;;5117031;28;20227;-63
2023/07/18 16:00:07;;;;;;;2.15;1.95;;;;;;;;;;5117512;28;20581;-62
2023/07/18 16:02:34;;;;;;;2.40;1.75;;;;;;;;;;5117109;28;20203;-62
2023/07/18 16:05:02;;;;;;;2.25;1.92;;;;;;;;;;5116919;28;20202;-62
2023/07/18 16:07:29;;;;;;;2.53;2.17;;;;;;;;;;5117230;28;20309;-62
2023/07/18 16:09:58;;;;;;;2.25;2.00;;;;;;;;;;5116945;28;20199;-62
2023/07/18 16:12:25;;;;;;;3.05;2.08;;;;;;;;;;5117082;28;20203;-62
2023/07/18 16:14:53;;;;;;;2.40;1.90;;;;;;;;;;5117462;28;20199;-62
2023/07/18 16:17:21;;;;;;;3.10;2.00;;;;;;;;;;5116738;28;20229;-62
2023/07/18 16:19:50;;;;;;;2.08;1.98;;;;;;;;;;5117136;28;20513;-62
2023/07/18 16:22:18;;;;;;;2.17;1.98;;;;;;;;;;5116901;28;20203;-62
2023/07/18 16:24:46;;;;;;;2.30;1.70;;;;;;;;;;5117347;28;20206;-62
2023/07/18 16:27:15;;;;;;;2.75;2.17;;;;;;;;;;5117203;28;20202;-62
2023/07/18 16:29:43;;;;;;;1.98;1.70;;;;;;;;;;5116925;28;20203;-62
2023/07/18 16:32:11;;;;;;;1.92;1.73;;;;;;;;;;5116885;28;20210;-62
2023/07/18 16:34:38;;;;;;;2.00;1.75;;;;;;;;;;5117372;28;20745;-62
2023/07/18 16:37:06;;;;;;;2.33;1.98;;;;;;;;;;5116869;28;20237;-62
2023/07/18 16:39:33;;;;;;;2.10;1.95;;;;;;;;;;5117269;28;20566;-62
2023/07/18 16:42:03;;;;;;;2.10;1.90;;;;;;;;;;5117964;28;20203;-62
2023/07/18 16:44:32;;;;;;;1.98;1.80;;;;;;;;;;5116917;28;20202;-62
2023/07/18 16:47:00;;;;;;;2.50;2.00;;;;;;;;;;5117738;28;20199;-62
2023/07/18 16:49:28;;;;;;;2.25;1.90;;;;;;;;;;5117553;28;20233;-62
2023/07/18 16:51:55;;;;;;;2.25;1.92;;;;;;;;;;5117800;28;20745;-62
2023/07/18 16:54:22;;;;;;;2.17;1.75;;;;;;;;;;5117245;28;20202;-62
2023/07/18 16:56:50;;;;;;;2.53;1.80;;;;;;;;;;5117354;28;20233;-62
2023/07/18 16:59:18;;;;;;;2.13;1.95;;;;;;;;;;5117184;28;20568;-62
2023/07/18 17:01:46;;;;;;;2.20;2.00;;;;;;;;;;5117530;28;20329;-62
2023/07/18 17:04:14;;;;;;;2.65;2.05;;;;;;;;;;5117270;28;20754;-62
2023/07/18 17:06:41;;;;;;;2.17;1.83;;;;;;;;;;5117277;28;20331;-62
2023/07/18 17:09:08;;;;;;;2.20;1.95;;;;;;;;;;5116804;28;20213;-62
2023/07/18 17:11:36;;;;;;;2.22;2.03;;;;;;;;;;5116306;28;20305;-62
2023/07/18 17:14:03;;;;;;;1.80;1.70;;;;;;;;;;5116169;28;20242;-62
2023/07/18 17:16:31;;;;;;;1.95;1.75;;;;;;;;;;5116448;28;20290;-62
2023/07/18 17:19:00;;;;;;;2.35;1.85;;;;;;;;;;5115343;28;20202;-62
2023/07/18 17:21:27;;;;;;;2.17;1.83;;;;;;;;;;5117039;28;20203;-62
2023/07/18 17:23:55;;;;;;;1.95;1.80;;;;;;;;;;5116750;28;20320;-62
2023/07/18 17:26:22;;;;;;;1.70;1.60;;;;;;;;;;5116798;28;20211;-62
2023/07/18 17:28:50;;;;;;;2.00;1.75;;;;;;;;;;5116090;28;20203;-62
2023/07/18 17:31:17;;;;;;;2.30;2.08;;;;;;;;;;5117103;28;20203;-62
2023/07/18 17:33:44;;;;;;;1.95;1.70;;;;;;;;;;5116620;28;20244;-62
2023/07/18 17:36:13;;;;;;;2.05;1.85;;;;;;;;;;5116621;28;20214;-62
2023/07/18 17:38:41;;;;;;;1.75;1.60;;;;;;;;;;5115902;28;20618;-62
2023/07/18 17:41:08;;;;;;;2.00;1.80;;;;;;;;;;5116111;28;20702;-62
2023/07/18 17:43:36;;;;;;;2.10;1.90;;;;;;;;;;5116234;28;20782;-62
2023/07/18 17:46:04;;;;;;;2.13;1.83;;;;;;;;;;5116328;28;20261;-62
2023/07/18 17:48:31;;;;;;;2.40;1.90;;;;;;;;;;5115968;28;20198;-62
2023/07/18 17:50:58;;;;;;;2.70;1.95;;;;;;;;;;5115622;28;20211;-62
2023/07/18 17:53:27;;;;;;;1.95;1.80;;;;;;;;;;5116479;28;20206;-69
2023/07/18 17:55:55;;;;;;;1.85;1.65;;;;;;;;;;5116476;28;20268;-62
2023/07/18 17:58:22;;;;;;;2.22;1.98;;;;;;;;;;5116005;28;20313;-62
2023/07/18 18:00:50;;;;;;;2.55;1.70;;;;;;;;;;5116169;28;20717;-63
2023/07/18 18:03:17;;;;;;;3.25;1.77;;;;;;;;;;5116154;28;20207;-62
2023/07/18 18:05:45;;;;;;;2.55;2.03;;;;;;;;;;5115920;28;20203;-62
2023/07/18 18:08:13;;;;;;;2.20;2.00;;;;;;;;;;5115865;28;20264;-62
2023/07/18 18:10:42;;;;;;;2.10;1.90;;;;;;;;;;5116433;28;20203;-63
2023/07/18 18:13:10;;;;;;;1.70;1.60;;;;;;;;;;5116713;28;20286;-62
2023/07/18 18:15:37;;;;;;;1.92;1.60;;;;;;;;;;5117142;28;20195;-62
2023/07/18 18:18:05;;;;;;;2.72;1.98;;;;;;;;;;5116312;28;20283;-62
2023/07/18 18:20:33;;;;;;;3.28;1.83;;;;;;;;;;5116813;28;20298;-62
2023/07/18 18:23:01;;;;;;;2.00;1.80;;;;;;;;;;5116503;28;20285;-62
2023/07/18 18:25:28;;;;;;;2.85;1.60;;;;;;;;;;5116545;28;20229;-62
2023/07/18 18:27:57;;;;;;;1.67;1.58;;;;;;;;;;5117275;28;20239;-62
2023/07/18 18:30:25;;;;;;;2.08;1.88;;;;;;;;;;5116357;28;20250;-62
2023/07/18 18:32:53;;;;;;;2.60;1.80;;;;;;;;;;5116610;28;20206;-62
2023/07/18 18:35:21;;;;;;;2.17;1.60;;;;;;;;;;5115713;28;20203;-62
2023/07/18 18:37:49;;;;;;;2.30;1.75;;;;;;;;;;5116140;28;20218;-62
2023/07/18 18:40:17;;;;;;;3.00;1.85;;;;;;;;;;5117026;28;20203;-62
2023/07/18 18:42:44;;;;;;;2.17;1.70;;;;;;;;;;5119851;28;20571;-61
2023/07/18 18:45:13;;;;;;;2.00;1.80;;;;;;;;;;5120253;28;20332;-61
2023/07/18 18:47:41;;;;;;;2.20;2.00;;;;;;;;;;5119582;28;20495;-62
2023/07/18 18:50:09;;;;;;;2.17;1.98;;;;;;;;;;5119763;28;20199;-62
2023/07/18 18:52:37;;;;;;;2.50;1.75;;;;;;;;;;5119479;28;20253;-62
2023/07/18 18:55:05;;;;;;;2.30;2.00;;;;;;;;;;5120195;28;20291;-62
2023/07/18 18:57:33;;;;;;;3.00;1.98;;;;;;;;;;5119656;28;20633;-62
2023/07/18 19:00:00;;;;;;;2.92;1.90;;;;;;;;;;5119675;28;20233;-61
2023/07/18 19:02:29;;;;;;;2.05;1.80;;;;;;;;;;5119591;28;20206;-62
2023/07/18 19:04:57;;;;;;;2.35;1.90;;;;;;;;;;5119937;28;20297;-61
2023/07/18 19:07:24;;;;;;;2.88;1.98;;;;;;;;;;5120218;28;20578;-61
2023/07/18 19:09:52;;;;;;;2.65;1.83;;;;;;;;;;5119349;28;20602;-62
2023/07/18 19:12:19;;;;;;;2.15;1.95;;;;;;;;;;5119887;28;20214;-61
2023/07/18 19:14:46;;;;;;;3.28;2.00;;;;;;;;;;5119207;28;20214;-62
2023/07/18 19:17:14;;;;;;;2.00;1.80;;;;;;;;;;5118742;28;20203;-62
2023/07/18 19:19:43;;;;;;;2.47;1.98;;;;;;;;;;5119174;28;20217;-61
2023/07/18 19:22:11;;;;;;;2.00;1.80;;;;;;;;;;5119280;28;20215;-61
2023/07/18 19:24:39;;;;;;;2.13;1.88;;;;;;;;;;5119320;28;20463;-61
2023/07/18 19:27:07;;;;;;;4.45;1.70;;;;;;;;;;5118940;28;20207;-62
2023/07/18 19:29:34;;;;;;;1.70;1.60;;;;;;;;;;5119265;28;20590;-62
2023/07/18 19:32:01;;;;;;;1.80;1.70;;;;;;;;;;5118945;28;20623;-62
2023/07/18 19:34:29;;;;;;;1.92;1.73;;;;;;;;;;5118627;28;20234;-62
2023/07/18 19:36:58;;;;;;;2.05;1.60;;;;;;;;;;5119198;28;20213;-61
2023/07/18 19:39:25;;;;;;;2.10;1.80;;;;;;;;;;5118662;28;20226;-62
2023/07/18 19:41:53;;;;;;;1.67;1.55;;;;;;;;;;5118643;28;20195;-62
2023/07/18 19:44:21;;;;;;;2.97;1.92;;;;;;;;;;5118896;28;20203;-62
2023/07/18 19:46:48;;;;;;;3.20;2.00;;;;;;;;;;5119085;28;20644;-63
2023/07/18 19:49:16;;;;;;;2.00;1.80;;;;;;;;;;5118628;28;20237;-61
2023/07/18 19:51:43;;;;;;;2.20;1.73;;;;;;;;;;5118620;28;20203;-62
2023/07/18 19:54:12;;;;;;;2.13;1.80;;;;;;;;;;5119314;28;20294;-62
2023/07/18 19:56:39;;;;;;;2.20;1.80;;;;;;;;;;5119831;28;20286;-62
2023/07/18 19:59:08;;;;;;;2.28;1.70;;;;;;;;;;5118739;28;20231;-62
2023/07/18 20:01:35;;;;;;;1.70;1.60;;;;;;;;;;5118823;28;20226;-61
2023/07/18 20:04:02;;;;;;;1.60;1.50;;;;;;;;;;5118699;28;20633;-62
2023/07/18 20:06:31;;;;;;;2.25;1.75;;;;;;;;;;5118916;28;20202;-62
2023/07/18 20:08:58;;;;;;;2.33;1.67;;;;;;;;;;5118761;28;20198;-62
2023/07/18 20:11:27;;;;;;;3.25;2.00;;;;;;;;;;5118554;28;20209;-61
2023/07/18 20:13:55;;;;;;;1.77;1.67;;;;;;;;;;5118430;28;20249;-61
2023/07/18 20:16:23;;;;;;;2.35;1.88;;;;;;;;;;5118283;28;20236;-61
2023/07/18 20:18:50;;;;;;;2.10;1.70;;;;;;;;;;5118006;28;20219;-61
2023/07/18 20:21:18;;;;;;;1.55;1.42;;;;;;;;;;5117721;28;20314;-63
2023/07/18 20:23:45;;;;;;;2.20;1.63;;;;;;;;;;5117918;28;20229;-61
2023/07/18 20:26:12;;;;;;;1.88;1.77;;;;;;;;;;5118156;28;20203;-62